sensor_id;sensor_type;location;lat;lon;timestamp;P1;durP1;ratioP1;P2;durP2;ratioP2
33844;SDS011;20145;43.118;25.694;2023-10-13T00:02:01;4.97;;;3.58;;
33844;SDS011;20145;43.118;25.694;2023-10-13T00:04:29;5.70;;;3.72;;
33844;SDS011;20145;43.118;25.694;2023-10-13T00:06:58;7.15;;;4.00;;
33844;SDS011;20145;43.118;25.694;2023-10-13T00:09:27;6.15;;;3.80;;
33844;SDS011;20145;43.118;25.694;2023-10-13T00:12:02;4.47;;;3.65;;
33844;SDS011;20145;43.118;25.694;2023-10-13T00:14:30;9.25;;;4.03;;
33844;SDS011;20145;43.118;25.694;2023-10-13T00:17:02;4.53;;;3.80;;
33844;SDS011;20145;43.118;25.694;2023-10-13T00:19:33;5.07;;;3.73;;
33844;SDS011;20145;43.118;25.694;2023-10-13T00:22:04;12.00;;;4.38;;
33844;SDS011;20145;43.118;25.694;2023-10-13T00:24:38;4.30;;;3.90;;
33844;SDS011;20145;43.118;25.694;2023-10-13T00:27:18;4.30;;;3.90;;
33844;SDS011;20145;43.118;25.694;2023-10-13T00:30:05;6.43;;;3.90;;
33844;SDS011;20145;43.118;25.694;2023-10-13T00:32:44;14.13;;;4.07;;
33844;SDS011;20145;43.118;25.694;2023-10-13T00:35:12;7.85;;;4.57;;
33844;SDS011;20145;43.118;25.694;2023-10-13T00:37:49;8.00;;;3.45;;
33844;SDS011;20145;43.118;25.694;2023-10-13T00:40:18;5.60;;;4.00;;
33844;SDS011;20145;43.118;25.694;2023-10-13T00:42:59;4.43;;;3.60;;
33844;SDS011;20145;43.118;25.694;2023-10-13T00:45:46;4.10;;;3.67;;
33844;SDS011;20145;43.118;25.694;2023-10-13T00:48:25;6.38;;;4.05;;
33844;SDS011;20145;43.118;25.694;2023-10-13T00:50:58;7.57;;;5.13;;
33844;SDS011;20145;43.118;25.694;2023-10-13T00:53:28;14.45;;;5.10;;
33844;SDS011;20145;43.118;25.694;2023-10-13T00:56:01;7.63;;;3.90;;
33844;SDS011;20145;43.118;25.694;2023-10-13T00:58:35;6.05;;;4.05;;
33844;SDS011;20145;43.118;25.694;2023-10-13T01:03:51;6.32;;;5.60;;
33844;SDS011;20145;43.118;25.694;2023-10-13T01:06:21;7.00;;;5.55;;
33844;SDS011;20145;43.118;25.694;2023-10-13T01:08:57;4.32;;;3.75;;
33844;SDS011;20145;43.118;25.694;2023-10-13T01:11:35;4.47;;;4.00;;
33844;SDS011;20145;43.118;25.694;2023-10-13T01:14:01;5.18;;;3.40;;
33844;SDS011;20145;43.118;25.694;2023-10-13T01:16:29;8.63;;;4.20;;
33844;SDS011;20145;43.118;25.694;2023-10-13T01:18:55;4.10;;;3.53;;
33844;SDS011;20145;43.118;25.694;2023-10-13T01:21:25;5.88;;;3.90;;
33844;SDS011;20145;43.118;25.694;2023-10-13T01:23:55;5.68;;;3.70;;
33844;SDS011;20145;43.118;25.694;2023-10-13T01:26:20;3.95;;;3.38;;
33844;SDS011;20145;43.118;25.694;2023-10-13T01:28:50;4.30;;;3.63;;
33844;SDS011;20145;43.118;25.694;2023-10-13T01:31:16;5.07;;;3.83;;
33844;SDS011;20145;43.118;25.694;2023-10-13T01:33:56;5.63;;;3.65;;
33844;SDS011;20145;43.118;25.694;2023-10-13T01:36:28;5.00;;;3.90;;
33844;SDS011;20145;43.118;25.694;2023-10-13T01:39:00;5.72;;;4.15;;
33844;SDS011;20145;43.118;25.694;2023-10-13T01:41:26;10.07;;;4.32;;
33844;SDS011;20145;43.118;25.694;2023-10-13T01:43:52;8.18;;;4.05;;
33844;SDS011;20145;43.118;25.694;2023-10-13T01:46:17;6.25;;;3.88;;
33844;SDS011;20145;43.118;25.694;2023-10-13T01:48:47;5.32;;;3.70;;
33844;SDS011;20145;43.118;25.694;2023-10-13T01:51:12;5.75;;;4.20;;
33844;SDS011;20145;43.118;25.694;2023-10-13T01:53:39;6.47;;;4.57;;
33844;SDS011;20145;43.118;25.694;2023-10-13T01:56:07;5.32;;;4.03;;
33844;SDS011;20145;43.118;25.694;2023-10-13T01:58:36;6.38;;;4.25;;
33844;SDS011;20145;43.118;25.694;2023-10-13T02:01:03;4.65;;;4.10;;
33844;SDS011;20145;43.118;25.694;2023-10-13T02:03:32;4.40;;;4.00;;
33844;SDS011;20145;43.118;25.694;2023-10-13T02:05:58;5.32;;;4.10;;
33844;SDS011;20145;43.118;25.694;2023-10-13T02:08:29;6.60;;;4.72;;
33844;SDS011;20145;43.118;25.694;2023-10-13T02:10:56;5.30;;;4.20;;
33844;SDS011;20145;43.118;25.694;2023-10-13T02:13:26;6.70;;;4.90;;
33844;SDS011;20145;43.118;25.694;2023-10-13T02:15:58;6.25;;;5.22;;
33844;SDS011;20145;43.118;25.694;2023-10-13T02:18:29;5.45;;;4.72;;
33844;SDS011;20145;43.118;25.694;2023-10-13T02:21:15;5.22;;;4.72;;
33844;SDS011;20145;43.118;25.694;2023-10-13T02:23:40;7.53;;;4.53;;
33844;SDS011;20145;43.118;25.694;2023-10-13T02:26:13;6.63;;;4.55;;
33844;SDS011;20145;43.118;25.694;2023-10-13T02:28:55;6.05;;;3.83;;
33844;SDS011;20145;43.118;25.694;2023-10-13T02:31:31;4.22;;;3.78;;
33844;SDS011;20145;43.118;25.694;2023-10-13T02:33:58;5.93;;;4.47;;
33844;SDS011;20145;43.118;25.694;2023-10-13T02:36:25;7.35;;;4.68;;
33844;SDS011;20145;43.118;25.694;2023-10-13T02:39:04;7.95;;;4.45;;
33844;SDS011;20145;43.118;25.694;2023-10-13T02:41:33;4.55;;;4.15;;
33844;SDS011;20145;43.118;25.694;2023-10-13T02:44:03;6.28;;;4.28;;
33844;SDS011;20145;43.118;25.694;2023-10-13T02:46:31;5.55;;;3.97;;
33844;SDS011;20145;43.118;25.694;2023-10-13T02:49:00;4.40;;;4.00;;
33844;SDS011;20145;43.118;25.694;2023-10-13T02:51:34;5.22;;;3.97;;
33844;SDS011;20145;43.118;25.694;2023-10-13T02:54:00;3.85;;;3.55;;
33844;SDS011;20145;43.118;25.694;2023-10-13T02:56:36;5.50;;;4.03;;
33844;SDS011;20145;43.118;25.694;2023-10-13T02:59:02;5.32;;;3.97;;
33844;SDS011;20145;43.118;25.694;2023-10-13T03:01:34;5.47;;;3.92;;
33844;SDS011;20145;43.118;25.694;2023-10-13T03:04:01;8.30;;;5.57;;
33844;SDS011;20145;43.118;25.694;2023-10-13T03:06:28;4.53;;;4.10;;
33844;SDS011;20145;43.118;25.694;2023-10-13T03:09:04;7.80;;;4.45;;
33844;SDS011;20145;43.118;25.694;2023-10-13T03:11:47;6.72;;;3.92;;
33844;SDS011;20145;43.118;25.694;2023-10-13T03:14:15;6.45;;;4.50;;
33844;SDS011;20145;43.118;25.694;2023-10-13T03:16:53;4.40;;;4.00;;
33844;SDS011;20145;43.118;25.694;2023-10-13T03:19:20;4.70;;;4.30;;
33844;SDS011;20145;43.118;25.694;2023-10-13T03:21:46;8.43;;;4.55;;
33844;SDS011;20145;43.118;25.694;2023-10-13T03:24:21;4.95;;;3.88;;
33844;SDS011;20145;43.118;25.694;2023-10-13T03:27:01;4.07;;;3.78;;
33844;SDS011;20145;43.118;25.694;2023-10-13T03:29:37;4.55;;;4.15;;
33844;SDS011;20145;43.118;25.694;2023-10-13T03:32:14;4.47;;;3.80;;
33844;SDS011;20145;43.118;25.694;2023-10-13T03:34:42;3.95;;;3.65;;
33844;SDS011;20145;43.118;25.694;2023-10-13T03:37:32;4.65;;;4.25;;
33844;SDS011;20145;43.118;25.694;2023-10-13T03:40:21;6.45;;;4.10;;
33844;SDS011;20145;43.118;25.694;2023-10-13T03:42:47;4.40;;;3.80;;
33844;SDS011;20145;43.118;25.694;2023-10-13T03:45:30;6.18;;;3.72;;
33844;SDS011;20145;43.118;25.694;2023-10-13T03:48:05;4.75;;;4.00;;
33844;SDS011;20145;43.118;25.694;2023-10-13T03:50:37;14.15;;;5.30;;
33844;SDS011;20145;43.118;25.694;2023-10-13T03:53:23;10.32;;;4.80;;
33844;SDS011;20145;43.118;25.694;2023-10-13T03:55:51;11.65;;;4.75;;
33844;SDS011;20145;43.118;25.694;2023-10-13T03:58:33;12.85;;;4.85;;
33844;SDS011;20145;43.118;25.694;2023-10-13T04:01:03;7.17;;;4.80;;
33844;SDS011;20145;43.118;25.694;2023-10-13T04:03:31;5.88;;;4.65;;
33844;SDS011;20145;43.118;25.694;2023-10-13T04:06:08;6.47;;;4.55;;
33844;SDS011;20145;43.118;25.694;2023-10-13T04:08:41;8.50;;;5.10;;
33844;SDS011;20145;43.118;25.694;2023-10-13T04:11:07;16.42;;;5.88;;
33844;SDS011;20145;43.118;25.694;2023-10-13T04:13:51;6.65;;;5.70;;
33844;SDS011;20145;43.118;25.694;2023-10-13T04:16:35;10.38;;;6.40;;
33844;SDS011;20145;43.118;25.694;2023-10-13T04:19:02;5.60;;;4.97;;
33844;SDS011;20145;43.118;25.694;2023-10-13T04:21:28;6.45;;;5.22;;
33844;SDS011;20145;43.118;25.694;2023-10-13T04:26:43;7.57;;;5.85;;
33844;SDS011;20145;43.118;25.694;2023-10-13T04:29:44;6.68;;;5.07;;
33844;SDS011;20145;43.118;25.694;2023-10-13T04:32:35;8.13;;;5.45;;
33844;SDS011;20145;43.118;25.694;2023-10-13T04:35:06;8.32;;;5.47;;
33844;SDS011;20145;43.118;25.694;2023-10-13T04:37:38;6.20;;;5.13;;
33844;SDS011;20145;43.118;25.694;2023-10-13T04:40:17;6.55;;;5.45;;
33844;SDS011;20145;43.118;25.694;2023-10-13T04:42:49;14.13;;;7.57;;
33844;SDS011;20145;43.118;25.694;2023-10-13T04:45:21;6.30;;;5.28;;
33844;SDS011;20145;43.118;25.694;2023-10-13T04:47:56;7.88;;;5.20;;
33844;SDS011;20145;43.118;25.694;2023-10-13T04:50:38;11.48;;;5.55;;
33844;SDS011;20145;43.118;25.694;2023-10-13T04:53:10;6.10;;;4.55;;
33844;SDS011;20145;43.118;25.694;2023-10-13T04:56:20;8.18;;;4.65;;
33844;SDS011;20145;43.118;25.694;2023-10-13T04:59:05;13.65;;;4.53;;
33844;SDS011;20145;43.118;25.694;2023-10-13T05:01:49;8.88;;;4.43;;
33844;SDS011;20145;43.118;25.694;2023-10-13T05:04:35;14.35;;;4.85;;
33844;SDS011;20145;43.118;25.694;2023-10-13T05:07:04;5.25;;;4.40;;
33844;SDS011;20145;43.118;25.694;2023-10-13T05:09:59;6.53;;;4.22;;
33844;SDS011;20145;43.118;25.694;2023-10-13T05:12:44;6.20;;;4.75;;
33844;SDS011;20145;43.118;25.694;2023-10-13T05:15:28;5.50;;;5.00;;
33844;SDS011;20145;43.118;25.694;2023-10-13T05:18:12;10.45;;;5.22;;
33844;SDS011;20145;43.118;25.694;2023-10-13T05:20:56;21.15;;;10.80;;
33844;SDS011;20145;43.118;25.694;2023-10-13T05:23:40;21.05;;;11.07;;
33844;SDS011;20145;43.118;25.694;2023-10-13T05:26:24;16.77;;;11.05;;
33844;SDS011;20145;43.118;25.694;2023-10-13T05:29:08;28.30;;;9.90;;
33844;SDS011;20145;43.118;25.694;2023-10-13T05:31:52;19.25;;;10.15;;
33844;SDS011;20145;43.118;25.694;2023-10-13T05:34:36;17.58;;;10.02;;
33844;SDS011;20145;43.118;25.694;2023-10-13T05:37:20;16.88;;;10.23;;
33844;SDS011;20145;43.118;25.694;2023-10-13T05:40:04;18.25;;;10.68;;
33844;SDS011;20145;43.118;25.694;2023-10-13T05:42:48;17.38;;;10.13;;
33844;SDS011;20145;43.118;25.694;2023-10-13T05:45:34;17.30;;;9.38;;
33844;SDS011;20145;43.118;25.694;2023-10-13T05:48:26;19.33;;;10.23;;
33844;SDS011;20145;43.118;25.694;2023-10-13T05:51:19;22.30;;;10.20;;
33844;SDS011;20145;43.118;25.694;2023-10-13T05:54:01;18.23;;;9.18;;
33844;SDS011;20145;43.118;25.694;2023-10-13T05:56:48;18.40;;;9.20;;
33844;SDS011;20145;43.118;25.694;2023-10-13T05:59:34;13.80;;;8.32;;
33844;SDS011;20145;43.118;25.694;2023-10-13T06:02:22;12.02;;;7.70;;
33844;SDS011;20145;43.118;25.694;2023-10-13T06:05:11;11.75;;;7.93;;
33844;SDS011;20145;43.118;25.694;2023-10-13T06:07:56;19.83;;;9.45;;
33844;SDS011;20145;43.118;25.694;2023-10-13T06:10:42;12.70;;;8.50;;
33844;SDS011;20145;43.118;25.694;2023-10-13T06:13:26;13.07;;;8.52;;
33844;SDS011;20145;43.118;25.694;2023-10-13T06:16:15;42.78;;;24.60;;
33844;SDS011;20145;43.118;25.694;2023-10-13T06:19:00;17.65;;;9.43;;
33844;SDS011;20145;43.118;25.694;2023-10-13T06:21:45;9.82;;;6.97;;
33844;SDS011;20145;43.118;25.694;2023-10-13T06:24:29;15.38;;;7.78;;
33844;SDS011;20145;43.118;25.694;2023-10-13T06:27:14;15.57;;;7.72;;
33844;SDS011;20145;43.118;25.694;2023-10-13T06:29:59;11.05;;;7.72;;
33844;SDS011;20145;43.118;25.694;2023-10-13T06:32:30;17.13;;;8.00;;
33844;SDS011;20145;43.118;25.694;2023-10-13T06:34:57;13.13;;;7.25;;
33844;SDS011;20145;43.118;25.694;2023-10-13T06:37:23;20.10;;;7.78;;
33844;SDS011;20145;43.118;25.694;2023-10-13T06:39:58;14.93;;;7.60;;
33844;SDS011;20145;43.118;25.694;2023-10-13T06:42:32;22.25;;;7.57;;
33844;SDS011;20145;43.118;25.694;2023-10-13T06:45:08;18.08;;;7.13;;
33844;SDS011;20145;43.118;25.694;2023-10-13T06:47:34;12.90;;;6.95;;
33844;SDS011;20145;43.118;25.694;2023-10-13T06:50:08;15.98;;;7.70;;
33844;SDS011;20145;43.118;25.694;2023-10-13T06:55:20;14.07;;;6.55;;
33844;SDS011;20145;43.118;25.694;2023-10-13T06:58:03;11.50;;;7.43;;
33844;SDS011;20145;43.118;25.694;2023-10-13T07:00:31;17.20;;;11.25;;
33844;SDS011;20145;43.118;25.694;2023-10-13T07:05:39;16.67;;;12.38;;
33844;SDS011;20145;43.118;25.694;2023-10-13T07:08:06;14.13;;;10.48;;
33844;SDS011;20145;43.118;25.694;2023-10-13T07:10:34;13.18;;;10.40;;
33844;SDS011;20145;43.118;25.694;2023-10-13T07:13:35;15.02;;;9.80;;
33844;SDS011;20145;43.118;25.694;2023-10-13T07:16:04;13.80;;;8.68;;
33844;SDS011;20145;43.118;25.694;2023-10-13T07:18:33;12.57;;;8.90;;
33844;SDS011;20145;43.118;25.694;2023-10-13T07:21:05;11.93;;;8.80;;
33844;SDS011;20145;43.118;25.694;2023-10-13T07:23:36;12.18;;;9.27;;
33844;SDS011;20145;43.118;25.694;2023-10-13T07:26:02;16.90;;;8.13;;
33844;SDS011;20145;43.118;25.694;2023-10-13T07:28:31;11.45;;;8.20;;
33844;SDS011;20145;43.118;25.694;2023-10-13T07:31:03;13.77;;;9.27;;
33844;SDS011;20145;43.118;25.694;2023-10-13T07:33:29;16.98;;;10.45;;
33844;SDS011;20145;43.118;25.694;2023-10-13T07:36:02;16.40;;;11.45;;
33844;SDS011;20145;43.118;25.694;2023-10-13T07:38:53;15.95;;;11.40;;
33844;SDS011;20145;43.118;25.694;2023-10-13T07:41:37;12.00;;;10.70;;
33844;SDS011;20145;43.118;25.694;2023-10-13T07:44:07;14.07;;;10.88;;
33844;SDS011;20145;43.118;25.694;2023-10-13T07:46:32;18.75;;;10.75;;
33844;SDS011;20145;43.118;25.694;2023-10-13T07:49:00;19.13;;;11.80;;
33844;SDS011;20145;43.118;25.694;2023-10-13T07:51:36;16.92;;;8.98;;
33844;SDS011;20145;43.118;25.694;2023-10-13T07:54:12;10.45;;;6.78;;
33844;SDS011;20145;43.118;25.694;2023-10-13T07:56:47;10.32;;;5.68;;
33844;SDS011;20145;43.118;25.694;2023-10-13T07:59:14;5.57;;;4.53;;
33844;SDS011;20145;43.118;25.694;2023-10-13T08:01:47;6.82;;;5.25;;
33844;SDS011;20145;43.118;25.694;2023-10-13T08:04:31;7.97;;;4.90;;
33844;SDS011;20145;43.118;25.694;2023-10-13T08:07:00;8.88;;;4.45;;
33844;SDS011;20145;43.118;25.694;2023-10-13T08:09:38;9.38;;;4.72;;
33844;SDS011;20145;43.118;25.694;2023-10-13T08:12:07;4.43;;;3.72;;
33844;SDS011;20145;43.118;25.694;2023-10-13T08:14:37;7.13;;;3.83;;
33844;SDS011;20145;43.118;25.694;2023-10-13T08:17:05;3.97;;;3.20;;
33844;SDS011;20145;43.118;25.694;2023-10-13T08:19:33;5.90;;;3.63;;
33844;SDS011;20145;43.118;25.694;2023-10-13T08:22:06;9.43;;;4.82;;
33844;SDS011;20145;43.118;25.694;2023-10-13T08:24:45;8.32;;;4.32;;
33844;SDS011;20145;43.118;25.694;2023-10-13T08:27:12;9.20;;;4.38;;
33844;SDS011;20145;43.118;25.694;2023-10-13T08:29:57;4.25;;;3.67;;
33844;SDS011;20145;43.118;25.694;2023-10-13T08:32:26;4.10;;;3.40;;
33844;SDS011;20145;43.118;25.694;2023-10-13T08:34:56;10.25;;;3.40;;
33844;SDS011;20145;43.118;25.694;2023-10-13T08:37:32;6.32;;;3.78;;
33844;SDS011;20145;43.118;25.694;2023-10-13T08:40:11;9.52;;;3.63;;
33844;SDS011;20145;43.118;25.694;2023-10-13T08:42:56;5.53;;;3.40;;
33844;SDS011;20145;43.118;25.694;2023-10-13T08:45:29;7.38;;;3.10;;
33844;SDS011;20145;43.118;25.694;2023-10-13T08:47:56;6.40;;;3.60;;
33844;SDS011;20145;43.118;25.694;2023-10-13T08:50:47;8.35;;;3.63;;
33844;SDS011;20145;43.118;25.694;2023-10-13T08:56:04;9.07;;;3.85;;
33844;SDS011;20145;43.118;25.694;2023-10-13T08:58:32;9.93;;;4.05;;
33844;SDS011;20145;43.118;25.694;2023-10-13T09:01:18;9.15;;;4.80;;
33844;SDS011;20145;43.118;25.694;2023-10-13T09:04:10;9.07;;;4.18;;
33844;SDS011;20145;43.118;25.694;2023-10-13T09:07:00;9.23;;;4.20;;
33844;SDS011;20145;43.118;25.694;2023-10-13T09:09:45;7.63;;;4.40;;
33844;SDS011;20145;43.118;25.694;2023-10-13T09:12:15;6.43;;;3.50;;
33844;SDS011;20145;43.118;25.694;2023-10-13T09:15:01;8.80;;;3.60;;
33844;SDS011;20145;43.118;25.694;2023-10-13T09:20:16;11.07;;;3.58;;
33844;SDS011;20145;43.118;25.694;2023-10-13T09:22:49;14.43;;;4.07;;
33844;SDS011;20145;43.118;25.694;2023-10-13T09:25:33;6.97;;;3.35;;
33844;SDS011;20145;43.118;25.694;2023-10-13T09:28:09;10.02;;;4.00;;
33844;SDS011;20145;43.118;25.694;2023-10-13T09:30:46;6.40;;;3.67;;
33844;SDS011;20145;43.118;25.694;2023-10-13T09:33:12;6.38;;;3.20;;
33844;SDS011;20145;43.118;25.694;2023-10-13T09:35:44;5.22;;;3.50;;
33844;SDS011;20145;43.118;25.694;2023-10-13T09:38:16;12.18;;;3.45;;
33844;SDS011;20145;43.118;25.694;2023-10-13T09:40:42;8.00;;;3.80;;
33844;SDS011;20145;43.118;25.694;2023-10-13T09:43:27;7.05;;;4.10;;
33844;SDS011;20145;43.118;25.694;2023-10-13T09:45:58;8.48;;;3.78;;
33844;SDS011;20145;43.118;25.694;2023-10-13T09:48:31;8.40;;;3.50;;
33844;SDS011;20145;43.118;25.694;2023-10-13T09:51:04;8.65;;;4.85;;
33844;SDS011;20145;43.118;25.694;2023-10-13T09:53:33;5.88;;;3.42;;
33844;SDS011;20145;43.118;25.694;2023-10-13T10:01:42;8.93;;;3.90;;
33844;SDS011;20145;43.118;25.694;2023-10-13T10:04:16;6.80;;;3.95;;
33844;SDS011;20145;43.118;25.694;2023-10-13T10:06:53;9.00;;;3.20;;
33844;SDS011;20145;43.118;25.694;2023-10-13T10:09:30;5.03;;;3.70;;
33844;SDS011;20145;43.118;25.694;2023-10-13T10:15:19;7.75;;;3.78;;
33844;SDS011;20145;43.118;25.694;2023-10-13T10:17:53;5.07;;;2.83;;
33844;SDS011;20145;43.118;25.694;2023-10-13T10:20:40;7.95;;;3.50;;
33844;SDS011;20145;43.118;25.694;2023-10-13T10:23:07;7.90;;;3.78;;
33844;SDS011;20145;43.118;25.694;2023-10-13T10:25:47;5.15;;;3.33;;
33844;SDS011;20145;43.118;25.694;2023-10-13T10:28:16;6.43;;;3.50;;
33844;SDS011;20145;43.118;25.694;2023-10-13T10:30:44;7.82;;;3.72;;
33844;SDS011;20145;43.118;25.694;2023-10-13T10:33:10;9.55;;;3.30;;
33844;SDS011;20145;43.118;25.694;2023-10-13T10:35:38;6.82;;;3.83;;
33844;SDS011;20145;43.118;25.694;2023-10-13T10:46:11;6.50;;;3.30;;
33844;SDS011;20145;43.118;25.694;2023-10-13T10:48:39;8.38;;;3.13;;
33844;SDS011;20145;43.118;25.694;2023-10-13T10:51:08;6.35;;;3.17;;
33844;SDS011;20145;43.118;25.694;2023-10-13T10:53:47;4.10;;;2.88;;
33844;SDS011;20145;43.118;25.694;2023-10-13T10:56:15;8.00;;;3.15;;
33844;SDS011;20145;43.118;25.694;2023-10-13T10:58:48;5.00;;;3.63;;
33844;SDS011;20145;43.118;25.694;2023-10-13T11:01:25;7.05;;;3.55;;
33844;SDS011;20145;43.118;25.694;2023-10-13T11:04:12;10.18;;;3.63;;
33844;SDS011;20145;43.118;25.694;2023-10-13T11:06:49;4.93;;;2.97;;
33844;SDS011;20145;43.118;25.694;2023-10-13T11:09:24;8.63;;;3.08;;
33844;SDS011;20145;43.118;25.694;2023-10-13T11:11:56;10.25;;;4.00;;
33844;SDS011;20145;43.118;25.694;2023-10-13T11:15:07;9.20;;;3.72;;
33844;SDS011;20145;43.118;25.694;2023-10-13T11:17:56;5.00;;;3.50;;
33844;SDS011;20145;43.118;25.694;2023-10-13T11:20:23;7.38;;;3.80;;
33844;SDS011;20145;43.118;25.694;2023-10-13T11:22:58;7.43;;;3.38;;
33844;SDS011;20145;43.118;25.694;2023-10-13T11:25:29;8.05;;;3.00;;
33844;SDS011;20145;43.118;25.694;2023-10-13T11:28:20;8.65;;;3.00;;
33844;SDS011;20145;43.118;25.694;2023-10-13T11:30:46;10.38;;;3.60;;
33844;SDS011;20145;43.118;25.694;2023-10-13T11:33:15;8.05;;;3.47;;
33844;SDS011;20145;43.118;25.694;2023-10-13T11:35:57;7.95;;;3.15;;
33844;SDS011;20145;43.118;25.694;2023-10-13T11:38:28;6.80;;;3.53;;
33844;SDS011;20145;43.118;25.694;2023-10-13T11:40:55;6.90;;;3.17;;
33844;SDS011;20145;43.118;25.694;2023-10-13T11:43:33;10.40;;;2.88;;
33844;SDS011;20145;43.118;25.694;2023-10-13T11:46:12;6.10;;;3.17;;
33844;SDS011;20145;43.118;25.694;2023-10-13T11:48:40;7.35;;;3.10;;
33844;SDS011;20145;43.118;25.694;2023-10-13T11:51:07;10.90;;;3.10;;
33844;SDS011;20145;43.118;25.694;2023-10-13T11:53:34;4.68;;;2.90;;
33844;SDS011;20145;43.118;25.694;2023-10-13T11:56:01;5.95;;;3.00;;
33844;SDS011;20145;43.118;25.694;2023-10-13T11:58:34;6.45;;;3.00;;
33844;SDS011;20145;43.118;25.694;2023-10-13T12:01:00;10.40;;;3.20;;
33844;SDS011;20145;43.118;25.694;2023-10-13T12:03:41;6.45;;;2.95;;
33844;SDS011;20145;43.118;25.694;2023-10-13T12:06:26;5.75;;;3.30;;
33844;SDS011;20145;43.118;25.694;2023-10-13T12:09:02;6.07;;;2.83;;
33844;SDS011;20145;43.118;25.694;2023-10-13T12:11:43;5.50;;;3.35;;
33844;SDS011;20145;43.118;25.694;2023-10-13T12:14:10;8.13;;;3.03;;
33844;SDS011;20145;43.118;25.694;2023-10-13T12:16:43;7.40;;;3.17;;
33844;SDS011;20145;43.118;25.694;2023-10-13T12:19:14;7.40;;;3.38;;
33844;SDS011;20145;43.118;25.694;2023-10-13T12:21:42;7.53;;;3.22;;
33844;SDS011;20145;43.118;25.694;2023-10-13T12:24:09;9.85;;;2.92;;
33844;SDS011;20145;43.118;25.694;2023-10-13T12:26:47;10.15;;;3.20;;
33844;SDS011;20145;43.118;25.694;2023-10-13T12:29:22;6.32;;;3.13;;
33844;SDS011;20145;43.118;25.694;2023-10-13T12:31:53;11.02;;;2.95;;
33844;SDS011;20145;43.118;25.694;2023-10-13T12:34:40;10.63;;;3.33;;
33844;SDS011;20145;43.118;25.694;2023-10-13T12:37:24;4.43;;;3.25;;
33844;SDS011;20145;43.118;25.694;2023-10-13T12:40:11;8.27;;;3.10;;
33844;SDS011;20145;43.118;25.694;2023-10-13T12:42:56;14.38;;;3.28;;
33844;SDS011;20145;43.118;25.694;2023-10-13T12:45:42;11.57;;;3.28;;
33844;SDS011;20145;43.118;25.694;2023-10-13T12:48:26;14.85;;;3.65;;
33844;SDS011;20145;43.118;25.694;2023-10-13T12:51:11;14.23;;;4.70;;
33844;SDS011;20145;43.118;25.694;2023-10-13T12:53:47;12.23;;;3.38;;
33844;SDS011;20145;43.118;25.694;2023-10-13T12:56:16;12.55;;;3.38;;
33844;SDS011;20145;43.118;25.694;2023-10-13T12:58:43;9.93;;;3.28;;
33844;SDS011;20145;43.118;25.694;2023-10-13T13:01:19;7.45;;;3.17;;
33844;SDS011;20145;43.118;25.694;2023-10-13T13:03:49;5.03;;;3.13;;
33844;SDS011;20145;43.118;25.694;2023-10-13T13:06:19;10.45;;;2.83;;
33844;SDS011;20145;43.118;25.694;2023-10-13T13:08:57;9.43;;;3.00;;
33844;SDS011;20145;43.118;25.694;2023-10-13T13:11:25;7.53;;;3.47;;
33844;SDS011;20145;43.118;25.694;2023-10-13T13:13:51;10.60;;;3.03;;
33844;SDS011;20145;43.118;25.694;2023-10-13T13:16:17;7.72;;;3.17;;
33844;SDS011;20145;43.118;25.694;2023-10-13T13:18:47;10.13;;;3.00;;
33844;SDS011;20145;43.118;25.694;2023-10-13T13:21:13;21.17;;;4.95;;
33844;SDS011;20145;43.118;25.694;2023-10-13T13:23:47;9.95;;;3.30;;
33844;SDS011;20145;43.118;25.694;2023-10-13T13:26:14;10.35;;;3.22;;
33844;SDS011;20145;43.118;25.694;2023-10-13T13:28:43;15.65;;;2.90;;
33844;SDS011;20145;43.118;25.694;2023-10-13T13:31:22;9.50;;;3.25;;
33844;SDS011;20145;43.118;25.694;2023-10-13T13:33:52;9.15;;;3.78;;
33844;SDS011;20145;43.118;25.694;2023-10-13T13:36:18;10.27;;;3.20;;
33844;SDS011;20145;43.118;25.694;2023-10-13T13:38:44;8.20;;;3.05;;
33844;SDS011;20145;43.118;25.694;2023-10-13T13:41:20;11.68;;;3.42;;
33844;SDS011;20145;43.118;25.694;2023-10-13T13:43:47;14.88;;;3.60;;
33844;SDS011;20145;43.118;25.694;2023-10-13T13:46:20;15.15;;;3.28;;
33844;SDS011;20145;43.118;25.694;2023-10-13T13:48:53;10.95;;;3.58;;
33844;SDS011;20145;43.118;25.694;2023-10-13T13:51:32;13.13;;;4.18;;
33844;SDS011;20145;43.118;25.694;2023-10-13T13:53:58;15.27;;;3.78;;
33844;SDS011;20145;43.118;25.694;2023-10-13T13:56:24;8.48;;;3.20;;
33844;SDS011;20145;43.118;25.694;2023-10-13T13:58:52;7.75;;;3.40;;
33844;SDS011;20145;43.118;25.694;2023-10-13T14:01:20;12.60;;;3.53;;
33844;SDS011;20145;43.118;25.694;2023-10-13T14:03:51;13.95;;;3.85;;
33844;SDS011;20145;43.118;25.694;2023-10-13T14:06:21;12.43;;;3.90;;
33844;SDS011;20145;43.118;25.694;2023-10-13T14:08:55;17.95;;;4.88;;
33844;SDS011;20145;43.118;25.694;2023-10-13T14:11:22;15.38;;;4.18;;
33844;SDS011;20145;43.118;25.694;2023-10-13T14:14:06;13.27;;;4.65;;
33844;SDS011;20145;43.118;25.694;2023-10-13T14:16:52;9.25;;;4.03;;
33844;SDS011;20145;43.118;25.694;2023-10-13T14:19:18;8.75;;;4.07;;
33844;SDS011;20145;43.118;25.694;2023-10-13T14:21:57;10.65;;;3.65;;
33844;SDS011;20145;43.118;25.694;2023-10-13T14:24:25;15.32;;;4.07;;
33844;SDS011;20145;43.118;25.694;2023-10-13T14:26:58;10.10;;;4.25;;
33844;SDS011;20145;43.118;25.694;2023-10-13T14:29:36;11.30;;;3.53;;
33844;SDS011;20145;43.118;25.694;2023-10-13T14:32:06;14.68;;;3.90;;
33844;SDS011;20145;43.118;25.694;2023-10-13T14:34:37;16.00;;;4.90;;
33844;SDS011;20145;43.118;25.694;2023-10-13T14:37:06;9.88;;;4.35;;
33844;SDS011;20145;43.118;25.694;2023-10-13T14:39:32;15.27;;;4.75;;
33844;SDS011;20145;43.118;25.694;2023-10-13T14:42:01;12.88;;;3.75;;
33844;SDS011;20145;43.118;25.694;2023-10-13T14:44:27;11.90;;;4.03;;
33844;SDS011;20145;43.118;25.694;2023-10-13T14:46:53;14.13;;;4.47;;
33844;SDS011;20145;43.118;25.694;2023-10-13T14:49:20;12.90;;;5.43;;
33844;SDS011;20145;43.118;25.694;2023-10-13T14:51:46;11.05;;;5.10;;
33844;SDS011;20145;43.118;25.694;2023-10-13T14:54:12;12.23;;;4.40;;
33844;SDS011;20145;43.118;25.694;2023-10-13T14:56:39;14.90;;;4.82;;
33844;SDS011;20145;43.118;25.694;2023-10-13T14:59:07;9.68;;;3.88;;
33844;SDS011;20145;43.118;25.694;2023-10-13T15:01:41;18.60;;;4.25;;
33844;SDS011;20145;43.118;25.694;2023-10-13T15:04:08;14.68;;;4.40;;
33844;SDS011;20145;43.118;25.694;2023-10-13T15:06:34;11.07;;;4.30;;
33844;SDS011;20145;43.118;25.694;2023-10-13T15:09:00;15.25;;;4.15;;
33844;SDS011;20145;43.118;25.694;2023-10-13T15:11:28;12.80;;;4.00;;
33844;SDS011;20145;43.118;25.694;2023-10-13T15:14:03;19.83;;;4.82;;
33844;SDS011;20145;43.118;25.694;2023-10-13T15:16:31;15.25;;;4.53;;
33844;SDS011;20145;43.118;25.694;2023-10-13T15:19:00;14.25;;;4.78;;
33844;SDS011;20145;43.118;25.694;2023-10-13T15:21:29;11.63;;;4.70;;
33844;SDS011;20145;43.118;25.694;2023-10-13T15:24:02;15.60;;;4.13;;
33844;SDS011;20145;43.118;25.694;2023-10-13T15:26:30;12.55;;;4.85;;
33844;SDS011;20145;43.118;25.694;2023-10-13T15:28:57;14.82;;;5.47;;
33844;SDS011;20145;43.118;25.694;2023-10-13T15:31:25;17.45;;;5.47;;
33844;SDS011;20145;43.118;25.694;2023-10-13T15:34:02;21.25;;;4.82;;
33844;SDS011;20145;43.118;25.694;2023-10-13T15:36:38;19.00;;;4.63;;
33844;SDS011;20145;43.118;25.694;2023-10-13T15:39:05;21.02;;;6.70;;
33844;SDS011;20145;43.118;25.694;2023-10-13T15:41:34;17.95;;;10.85;;
33844;SDS011;20145;43.118;25.694;2023-10-13T15:44:03;21.55;;;8.82;;